Time;durP1;ratioP1;P1;durP2;ratioP2;P2;SDS_P1;SDS_P2;PMS_P1;PMS_P2;Temp;Humidity;BMP_temperature;BMP_pressure;BME280_temperature;BME280_humidity;BME280_pressure;Samples;Min_cycle;Max_cycle;Signal;HPM_P1;HPM_P2
2021/06/19 00:03:17;;;;;;;6.20;3.70;;;26.20;58.30;;;;;;10458229;28;20225;-83
2021/06/19 00:08:22;;;;;;;7.03;4.03;;;26.20;57.90;;;;;;10449738;28;20259;-82
2021/06/19 00:13:24;;;;;;;6.97;3.50;;;26.10;58.40;;;;;;10453103;28;20233;-82
2021/06/19 00:18:28;;;;;;;15.33;3.90;;;26.10;59.10;;;;;;10463952;28;20307;-82
2021/06/19 00:23:31;;;;;;;7.03;3.93;;;26.10;59.40;;;;;;10443419;28;20283;-82
2021/06/19 00:28:36;;;;;;;14.90;4.60;;;26.10;59.90;;;;;;10437236;28;20296;-83
2021/06/19 00:33:40;;;;;;;9.03;4.70;;;26.00;63.10;;;;;;10411895;28;20229;-82
2021/06/19 00:44:17;;;;;;;10.10;5.37;;;25.80;64.60;;;;;;10387083;28;20662;-82
2021/06/19 00:49:21;;;;;;;13.33;5.03;;;25.60;65.10;;;;;;10422200;28;20202;-81
2021/06/19 00:54:27;;;;;;;13.63;4.43;;;25.50;66.60;;;;;;10392356;28;20221;-84
2021/06/19 00:59:32;;;;;;;7.73;4.70;;;25.50;64.10;;;;;;10408295;28;20569;-82
2021/06/19 01:04:36;;;;;;;8.60;5.10;;;25.50;63.80;;;;;;10396301;28;20231;-84
2021/06/19 01:09:38;;;;;;;4.73;3.70;;;25.60;66.00;;;;;;10431538;28;20202;-83
2021/06/19 01:14:43;;;;;;;9.67;3.90;;;25.50;66.80;;;;;;10410948;28;20300;-83
2021/06/19 01:19:46;;;;;;;7.10;4.30;;;25.40;68.40;;;;;;10456406;28;20247;-83
2021/06/19 01:24:51;;;;;;;12.10;4.93;;;25.30;70.40;;;;;;10448303;28;20221;-83
2021/06/19 01:29:53;;;;;;;7.80;4.47;;;25.10;71.80;;;;;;10448284;28;20225;-83
2021/06/19 01:34:55;;;;;;;7.70;4.20;;;25.00;71.20;;;;;;10466687;28;20240;-83
2021/06/19 01:40:06;;;;;;;14.07;4.97;;;25.00;70.00;;;;;;10465754;28;20207;-82
2021/06/19 01:45:14;;;;;;;8.50;4.00;;;25.00;70.40;;;;;;10430893;28;20300;-81
2021/06/19 01:50:18;;;;;;;7.60;5.00;;;25.00;68.70;;;;;;10418630;28;20322;-81
2021/06/19 01:55:22;;;;;;;16.30;5.17;;;25.10;72.10;;;;;;10434689;28;20287;-83
2021/06/19 02:00:26;;;;;;;9.17;5.63;;;25.10;71.40;;;;;;10447421;28;20288;-83
2021/06/19 02:05:29;;;;;;;7.73;4.70;;;25.20;69.30;;;;;;10448563;28;20396;-83
2021/06/19 02:10:36;;;;;;;8.80;5.37;;;25.10;71.00;;;;;;10467363;28;20197;-82
2021/06/19 02:15:41;;;;;;;7.43;5.20;;;25.10;70.30;;;;;;10442458;28;20240;-81
2021/06/19 02:20:44;;;;;;;7.53;5.47;;;25.10;73.20;;;;;;10448597;28;20627;-81
2021/06/19 02:25:51;;;;;;;10.40;6.63;;;25.10;74.70;;;;;;10441829;28;20221;-83
2021/06/19 02:30:58;;;;;;;9.67;5.43;;;25.10;76.30;;;;;;10462653;28;20388;-82
2021/06/19 02:36:00;;;;;;;8.87;4.90;;;25.10;75.80;;;;;;10442395;28;20225;-81
2021/06/19 02:41:04;;;;;;;9.83;5.47;;;25.00;74.10;;;;;;10463282;28;20304;-83
2021/06/19 02:46:06;;;;;;;8.33;4.87;;;25.00;74.80;;;;;;10452042;28;20282;-81
2021/06/19 02:51:08;;;;;;;8.73;5.93;;;24.90;76.40;;;;;;10468961;28;20228;-82
2021/06/19 02:56:12;;;;;;;13.13;5.90;;;24.80;77.60;;;;;;10463824;28;20224;-83
2021/06/19 03:01:14;;;;;;;7.30;5.33;;;24.60;78.20;;;;;;10457367;28;20206;-82
2021/06/19 03:06:16;;;;;;;8.20;5.87;;;24.50;79.10;;;;;;10467904;28;20228;-81
2021/06/19 03:11:20;;;;;;;7.30;6.10;;;24.50;80.00;;;;;;10451469;28;20202;-80
2021/06/19 03:16:22;;;;;;;9.87;6.47;;;24.50;80.00;;;;;;10445531;28;20299;-83
2021/06/19 03:21:24;;;;;;;8.30;6.17;;;24.40;80.00;;;;;;10440806;28;20205;-83
2021/06/19 03:26:27;;;;;;;9.23;5.70;;;24.40;80.20;;;;;;10458211;28;20235;-82
2021/06/19 03:31:33;;;;;;;11.73;6.00;;;24.40;80.40;;;;;;10439362;28;20197;-83
2021/06/19 03:36:35;;;;;;;10.43;6.90;;;24.40;80.40;;;;;;10432971;28;20243;-82
2021/06/19 03:41:39;;;;;;;9.80;6.13;;;24.40;79.10;;;;;;10457350;28;20205;-80
2021/06/19 03:46:41;;;;;;;10.07;7.10;;;24.40;79.50;;;;;;10443714;28;20237;-81
2021/06/19 03:51:43;;;;;;;10.40;6.60;;;24.30;80.10;;;;;;10451122;28;20280;-82
2021/06/19 03:56:47;;;;;;;9.30;6.97;;;24.30;80.10;;;;;;10438620;28;20233;-81
2021/06/19 04:01:49;;;;;;;10.30;6.83;;;24.30;80.70;;;;;;10453322;28;20774;-83
2021/06/19 04:06:51;;;;;;;10.70;6.80;;;24.20;81.30;;;;;;10445083;28;92576;-81
2021/06/19 04:11:54;;;;;;;11.63;7.33;;;24.30;81.50;;;;;;10468527;28;20212;-83
2021/06/19 04:16:57;;;;;;;11.57;5.93;;;24.30;82.10;;;;;;10445858;28;20225;-83
2021/06/19 04:21:59;;;;;;;13.37;7.40;;;24.30;82.70;;;;;;10444076;28;20202;-83
2021/06/19 04:27:04;;;;;;;9.20;6.27;;;24.40;82.30;;;;;;10451412;28;20224;-83
2021/06/19 04:32:07;;;;;;;7.73;6.63;;;24.40;82.80;;;;;;10443145;28;20557;-83
2021/06/19 04:37:10;;;;;;;11.87;7.17;;;24.30;82.70;;;;;;10449982;28;20228;-82
2021/06/19 04:42:15;;;;;;;11.27;6.67;;;24.40;82.50;;;;;;10450386;28;20287;-83
2021/06/19 04:47:18;;;;;;;8.70;7.27;;;24.60;83.50;;;;;;10464380;28;20240;-81
2021/06/19 04:52:20;;;;;;;10.17;7.20;;;24.90;81.50;;;;;;10429006;28;20671;-82
2021/06/19 04:57:24;;;;;;;8.83;8.00;;;25.00;81.70;;;;;;10444957;28;20245;-83
2021/06/19 05:02:26;;;;;;;7.47;6.17;;;25.10;81.10;;;;;;10460055;28;20784;-83
2021/06/19 05:07:28;;;;;;;10.63;6.53;;;25.10;81.80;;;;;;10513251;22;20235;-80
2021/06/19 05:12:32;;;;;;;7.40;6.80;;;25.10;82.60;;;;;;10504380;28;20197;-80
2021/06/19 05:17:34;;;;;;;10.70;7.77;;;25.00;82.90;;;;;;10506498;28;20707;-80
2021/06/19 05:22:36;;;;;;;10.10;6.23;;;24.90;82.60;;;;;;10502441;28;20665;-80
2021/06/19 05:27:40;;;;;;;11.10;7.67;;;24.90;83.30;;;;;;10502033;28;20224;-80
2021/06/19 05:32:42;;;;;;;13.93;7.33;;;24.80;83.80;;;;;;10494241;28;20228;-80
2021/06/19 05:37:44;;;;;;;8.33;6.73;;;24.80;83.70;;;;;;10507767;28;20722;-80
2021/06/19 05:42:48;;;;;;;12.63;7.87;;;24.90;85.30;;;;;;10515351;28;20250;-80
2021/06/19 05:47:50;;;;;;;11.20;8.20;;;25.00;84.00;;;;;;10511946;28;20734;-80
2021/06/19 05:52:52;;;;;;;9.00;7.73;;;25.10;84.00;;;;;;10516449;28;20201;-79
2021/06/19 05:57:56;;;;;;;10.93;8.00;;;25.10;82.40;;;;;;10514541;28;20688;-80
2021/06/19 06:02:58;;;;;;;8.20;7.40;;;25.20;83.10;;;;;;10513871;28;20196;-80
2021/06/19 06:08:00;;;;;;;8.20;7.40;;;25.30;81.80;;;;;;10505205;28;20286;-80
2021/06/19 06:13:05;;;;;;;11.40;7.87;;;25.20;82.30;;;;;;10510624;28;20201;-80
2021/06/19 06:18:07;;;;;;;9.63;8.70;;;25.30;82.60;;;;;;10503525;28;20240;-80
2021/06/19 06:23:09;;;;;;;9.70;7.20;;;25.30;81.80;;;;;;10503134;28;20288;-80
2021/06/19 06:28:13;;;;;;;8.83;7.30;;;25.30;80.70;;;;;;10483182;28;20216;-80
2021/06/19 06:33:15;;;;;;;9.00;8.20;;;25.40;79.90;;;;;;10489103;28;20239;-80
2021/06/19 06:38:17;;;;;;;13.00;10.60;;;25.50;79.20;;;;;;10501743;28;20217;-80
2021/06/19 06:43:21;;;;;;;16.83;11.23;;;25.70;79.80;;;;;;10502318;28;20626;-80
2021/06/19 06:48:24;;;;;;;7.23;6.53;;;25.90;78.70;;;;;;10501566;28;20267;-80
2021/06/19 06:53:26;;;;;;;10.73;7.50;;;26.20;78.10;;;;;;10491018;28;20650;-80
2021/06/19 06:58:29;;;;;;;11.60;7.30;;;26.50;77.30;;;;;;10511410;28;20315;-80
2021/06/19 07:03:31;;;;;;;9.70;7.83;;;26.70;75.60;;;;;;10499999;28;20244;-80
2021/06/19 07:08:33;;;;;;;7.43;6.30;;;26.90;74.40;;;;;;10509592;28;20248;-81
2021/06/19 07:13:37;;;;;;;9.73;6.60;;;27.10;73.20;;;;;;10509257;28;20279;-80
2021/06/19 07:18:39;;;;;;;10.90;7.60;;;27.50;73.90;;;;;;10502234;28;20228;-80
2021/06/19 07:23:41;;;;;;;12.17;6.90;;;27.90;72.50;;;;;;10506696;28;20193;-80
2021/06/19 07:28:45;;;;;;;11.10;7.13;;;28.40;71.70;;;;;;10505758;28;20224;-80
2021/06/19 07:33:47;;;;;;;6.17;5.57;;;28.90;69.50;;;;;;10502435;28;20219;-80
2021/06/19 07:38:49;;;;;;;9.10;6.13;;;29.40;67.70;;;;;;10506183;28;20312;-80
2021/06/19 07:43:53;;;;;;;8.10;6.30;;;29.90;64.70;;;;;;10508252;28;20223;-80
2021/06/19 07:48:55;;;;;;;6.17;5.40;;;30.30;64.40;;;;;;10503577;28;20700;-80
2021/06/19 07:53:58;;;;;;;7.07;5.93;;;30.80;63.70;;;;;;10501269;28;20227;-80
2021/06/19 07:59:01;;;;;;;7.60;6.63;;;31.20;60.60;;;;;;10502186;28;20687;-80
2021/06/19 08:04:04;;;;;;;10.17;6.77;;;31.40;60.50;;;;;;10491935;28;20200;-80
2021/06/19 08:09:06;;;;;;;7.50;6.77;;;31.80;59.60;;;;;;10482632;28;20227;-78
2021/06/19 08:14:10;;;;;;;8.50;6.70;;;32.20;58.60;;;;;;10465971;28;20640;-78
2021/06/19 08:19:12;;;;;;;7.53;5.90;;;32.70;58.10;;;;;;10466665;28;20284;-78
2021/06/19 08:24:14;;;;;;;7.67;6.97;;;33.10;58.30;;;;;;10466921;28;20586;-78
2021/06/19 08:29:17;;;;;;;7.50;6.00;;;33.40;56.90;;;;;;10470046;28;20221;-78
2021/06/19 08:34:20;;;;;;;7.87;6.80;;;33.60;56.10;;;;;;10467444;28;20575;-78
2021/06/19 08:39:22;;;;;;;14.07;7.73;;;33.90;56.80;;;;;;10469583;28;20224;-78
2021/06/19 08:44:26;;;;;;;8.83;7.30;;;34.10;56.40;;;;;;10467725;28;20724;-78
2021/06/19 08:49:42;;;;;;;8.13;7.43;;;34.40;56.30;;;;;;10465840;28;20200;-78
2021/06/19 08:54:45;;;;;;;14.07;7.33;;;34.60;55.40;;;;;;10451823;28;20212;-78
2021/06/19 08:59:51;;;;;;;8.03;6.43;;;34.70;55.60;;;;;;10474557;28;20196;-78
2021/06/19 09:05:05;;;;;;;8.60;7.07;;;34.90;54.80;;;;;;10472102;28;20252;-78
2021/06/19 09:10:25;;;;;;;8.67;7.77;;;35.10;55.10;;;;;;10473087;28;20268;-79
2021/06/19 09:15:30;;;;;;;7.20;6.50;;;35.40;54.60;;;;;;10479757;28;20711;-79
2021/06/19 09:20:38;;;;;;;6.97;6.30;;;35.80;53.10;;;;;;10473771;28;20727;-79
2021/06/19 09:25:40;;;;;;;10.73;7.47;;;36.00;52.70;;;;;;10500153;28;20295;-79
2021/06/19 09:30:44;;;;;;;6.80;5.80;;;36.20;53.30;;;;;;10500763;28;20750;-79
2021/06/19 09:35:46;;;;;;;10.10;6.70;;;36.30;52.90;;;;;;10505725;28;20281;-79
2021/06/19 09:40:49;;;;;;;9.00;6.30;;;36.90;51.10;;;;;;10492826;28;20212;-79
2021/06/19 09:46:02;;;;;;;6.57;5.95;;;37.60;50.60;;;;;;10454983;28;20713;-79
2021/06/19 09:51:13;;;;;;;9.23;6.32;;;38.40;49.50;;;;;;10472914;28;20220;-79
2021/06/19 09:56:17;;;;;;;8.85;5.85;;;39.30;48.20;;;;;;10471906;28;20772;-80
2021/06/19 10:01:32;;;;;;;8.25;5.80;;;40.50;46.40;;;;;;10467633;28;20374;-80
2021/06/19 10:06:36;;;;;;;9.00;6.47;;;41.60;44.30;;;;;;10490079;28;20226;-80
2021/06/19 10:11:39;;;;;;;5.20;4.80;;;41.70;43.00;;;;;;10509358;28;20196;-79
2021/06/19 10:16:44;;;;;;;6.00;5.40;;;42.30;43.20;;;;;;10515096;28;20235;-80
2021/06/19 10:21:46;;;;;;;6.03;5.47;;;43.20;42.90;;;;;;10504512;28;20192;-80
2021/06/19 10:26:49;;;;;;;6.75;6.05;;;43.50;41.60;;;;;;10477113;28;20277;-80
2021/06/19 10:31:55;;;;;;;10.50;6.55;;;41.50;41.70;;;;;;10476082;28;20196;-80
2021/06/19 10:36:58;;;;;;;10.80;6.40;;;39.30;44.80;;;;;;10490090;28;20227;-80
2021/06/19 10:42:06;;;;;;;11.00;6.37;;;37.80;46.50;;;;;;10505877;28;20203;-79
2021/06/19 10:47:18;;;;;;;8.00;6.90;;;36.60;48.70;;;;;;10479538;28;20223;-80
2021/06/19 10:52:26;;;;;;;6.70;6.00;;;35.70;50.60;;;;;;10488262;28;20570;-79
2021/06/19 10:57:42;;;;;;;10.10;7.30;;;35.00;51.50;;;;;;10488373;28;20220;-80
2021/06/19 11:02:53;;;;;;;7.53;6.77;;;34.40;52.10;;;;;;10507881;28;20235;-79
2021/06/19 11:08:21;;;;;;;7.53;6.20;;;33.80;53.70;;;;;;10502048;22;20248;-83
2021/06/19 12:34:39;;;;;;;9.20;6.33;;;31.80;54.20;;;;;;10411329;28;20236;-83
2021/06/19 12:39:44;;;;;;;9.30;5.50;;;31.80;53.90;;;;;;10397452;28;20237;-81
2021/06/19 12:45:04;;;;;;;6.97;4.93;;;31.90;49.90;;;;;;10416970;28;20217;-81
2021/06/19 12:50:09;;;;;;;10.30;5.53;;;31.80;48.80;;;;;;10394167;28;20288;-82
2021/06/19 12:55:13;;;;;;;8.40;5.90;;;31.70;49.20;;;;;;10391563;28;20250;-82
2021/06/19 13:00:16;;;;;;;11.60;4.70;;;31.60;50.60;;;;;;10400407;28;20197;-82
2021/06/19 13:05:21;;;;;;;6.17;5.07;;;31.60;48.90;;;;;;10376888;28;20222;-83
2021/06/19 13:10:31;;;;;;;7.93;5.03;;;31.50;50.50;;;;;;10369632;28;20620;-84
2021/06/19 13:15:34;;;;;;;7.90;5.30;;;31.40;50.10;;;;;;10368425;28;20317;-83
2021/06/19 13:20:38;;;;;;;9.53;5.00;;;31.30;50.10;;;;;;10416560;28;20230;-83
2021/06/19 13:25:59;;;;;;;7.10;5.00;;;31.30;49.20;;;;;;10414249;28;20226;-81
2021/06/19 13:31:06;;;;;;;8.93;5.73;;;31.30;49.80;;;;;;10393156;28;20682;-82
2021/06/19 13:36:24;;;;;;;6.53;4.83;;;31.30;50.20;;;;;;10393320;28;20221;-81
2021/06/19 13:41:39;;;;;;;8.83;5.57;;;31.30;51.20;;;;;;10377333;28;20558;-82
2021/06/19 13:46:42;;;;;;;7.23;5.33;;;31.30;50.70;;;;;;10393379;28;20272;-82
2021/06/19 13:51:48;;;;;;;7.47;5.73;;;31.20;51.20;;;;;;10399171;28;20206;-81
2021/06/19 13:56:51;;;;;;;7.90;5.20;;;31.20;51.30;;;;;;10421456;28;20689;-80
2021/06/19 14:01:53;;;;;;;11.67;6.40;;;31.20;51.80;;;;;;10431221;28;20225;-82
2021/06/19 14:06:57;;;;;;;10.10;5.47;;;31.20;52.50;;;;;;10438440;28;20214;-81
2021/06/19 14:11:59;;;;;;;5.87;5.30;;;31.20;53.30;;;;;;10427585;28;20296;-81
2021/06/19 14:17:01;;;;;;;10.27;5.90;;;31.20;53.70;;;;;;10424935;28;20308;-81
2021/06/19 14:22:05;;;;;;;7.37;6.67;;;31.20;54.20;;;;;;10425264;28;20685;-81
2021/06/19 14:27:11;;;;;;;9.30;6.13;;;31.30;54.70;;;;;;10431932;28;20217;-81
2021/06/19 14:32:13;;;;;;;7.70;6.30;;;31.40;55.00;;;;;;10421555;28;20190;-80
2021/06/19 14:37:17;;;;;;;9.43;6.60;;;31.30;56.40;;;;;;10420085;28;20301;-81
2021/06/19 14:42:19;;;;;;;12.90;7.30;;;31.20;56.50;;;;;;10419712;28;20210;-81
2021/06/19 14:47:23;;;;;;;10.33;6.90;;;31.30;55.80;;;;;;10421300;28;20229;-81
2021/06/19 14:52:26;;;;;;;7.50;6.30;;;31.40;56.40;;;;;;10419065;28;20198;-82
2021/06/19 14:57:28;;;;;;;10.63;5.67;;;31.30;54.70;;;;;;10417776;28;20655;-81
2021/06/19 15:02:33;;;;;;;10.30;6.50;;;31.20;55.00;;;;;;10418981;28;20222;-81
2021/06/19 15:07:37;;;;;;;9.13;6.00;;;31.20;55.40;;;;;;10405600;28;20698;-81
2021/06/19 15:12:39;;;;;;;10.80;6.53;;;31.20;54.80;;;;;;10420158;28;20232;-81
2021/06/19 15:17:42;;;;;;;6.63;5.73;;;31.10;55.20;;;;;;10421619;28;20615;-80
2021/06/19 15:22:47;;;;;;;10.10;6.97;;;31.10;55.40;;;;;;10421651;28;20222;-80
2021/06/19 15:27:49;;;;;;;15.10;7.53;;;31.10;55.30;;;;;;10414040;28;20292;-81
2021/06/19 15:32:52;;;;;;;10.50;6.53;;;31.10;54.70;;;;;;10421442;28;20232;-81
2021/06/19 15:37:55;;;;;;;11.93;6.80;;;31.10;54.90;;;;;;10424389;28;20222;-81
2021/06/19 15:43:00;;;;;;;11.43;6.40;;;31.10;56.10;;;;;;10419923;28;20198;-81
2021/06/19 15:48:02;;;;;;;13.57;7.53;;;31.20;55.00;;;;;;10420375;28;20222;-81
2021/06/19 15:53:05;;;;;;;14.80;7.10;;;31.10;56.10;;;;;;10423092;28;20288;-82
2021/06/19 15:58:07;;;;;;;12.73;6.40;;;31.10;55.00;;;;;;10419673;28;20309;-81
2021/06/19 16:03:10;;;;;;;7.83;7.10;;;31.00;56.80;;;;;;10418791;28;20228;-82
2021/06/19 16:08:13;;;;;;;6.93;6.33;;;31.00;57.20;;;;;;10397016;28;20233;-81
2021/06/19 16:13:15;;;;;;;8.17;7.33;;;30.90;57.50;;;;;;10419125;28;20268;-80
2021/06/19 16:18:17;;;;;;;11.23;6.67;;;30.90;55.90;;;;;;10417323;28;20236;-81
2021/06/19 16:23:21;;;;;;;7.73;6.87;;;30.90;56.90;;;;;;10418646;28;20208;-81
2021/06/19 16:28:23;;;;;;;7.80;6.80;;;30.80;58.00;;;;;;10419018;28;20702;-81
2021/06/19 16:33:25;;;;;;;7.60;6.67;;;30.80;57.10;;;;;;10410295;28;20293;-81
2021/06/19 16:38:29;;;;;;;10.80;7.63;;;30.70;56.80;;;;;;10409779;28;20744;-82
2021/06/19 16:43:32;;;;;;;8.97;7.23;;;30.70;57.10;;;;;;10426708;28;20293;-83
2021/06/19 16:48:34;;;;;;;13.00;7.70;;;30.80;57.80;;;;;;10408590;28;20313;-81
2021/06/19 16:53:38;;;;;;;9.37;7.43;;;30.70;56.90;;;;;;10427309;28;20213;-81
2021/06/19 16:58:40;;;;;;;10.23;7.07;;;30.80;57.10;;;;;;10423242;28;20271;-82
2021/06/19 17:03:42;;;;;;;9.63;6.77;;;30.70;58.00;;;;;;10422796;28;20206;-82
2021/06/19 17:08:45;;;;;;;8.30;6.73;;;30.60;56.30;;;;;;10424795;28;20217;-81
2021/06/19 17:13:48;;;;;;;7.67;6.73;;;30.60;57.10;;;;;;10424412;28;20277;-81
2021/06/19 17:18:50;;;;;;;12.93;8.70;;;30.50;57.70;;;;;;10418578;28;20320;-81
2021/06/19 17:23:53;;;;;;;10.73;7.00;;;30.50;58.90;;;;;;10425533;28;20621;-81
2021/06/19 17:28:55;;;;;;;7.67;6.63;;;30.40;59.10;;;;;;10412377;28;20241;-81
2021/06/19 17:33:59;;;;;;;10.53;6.87;;;30.30;59.30;;;;;;10429698;28;20201;-81
2021/06/19 17:39:03;;;;;;;8.33;7.63;;;30.30;58.80;;;;;;10431704;28;20229;-81
2021/06/19 17:44:06;;;;;;;7.60;7.00;;;30.20;59.50;;;;;;10429061;28;20205;-81
2021/06/19 17:49:08;;;;;;;8.50;7.70;;;30.10;59.90;;;;;;10434122;28;20216;-81
2021/06/19 17:54:12;;;;;;;12.80;7.63;;;30.00;61.20;;;;;;10432841;28;20197;-81
2021/06/19 17:59:14;;;;;;;7.90;6.93;;;29.90;60.80;;;;;;10430038;28;20280;-81
2021/06/19 18:04:16;;;;;;;8.43;7.60;;;29.80;61.80;;;;;;10430961;28;20197;-81
2021/06/19 18:09:19;;;;;;;8.63;7.73;;;29.70;60.80;;;;;;10430799;28;20296;-81
2021/06/19 18:14:21;;;;;;;9.40;6.87;;;29.80;60.20;;;;;;10428517;28;20202;-81
2021/06/19 18:19:24;;;;;;;8.27;7.47;;;29.80;62.70;;;;;;10429616;28;20226;-81
2021/06/19 18:24:27;;;;;;;11.37;10.17;;;29.70;63.70;;;;;;10431231;28;20201;-81
2021/06/19 18:29:29;;;;;;;9.00;8.20;;;29.60;65.40;;;;;;10446113;28;20300;-81
2021/06/19 18:34:31;;;;;;;9.00;8.00;;;29.40;63.60;;;;;;10431885;28;20202;-81
2021/06/19 18:39:35;;;;;;;8.53;7.40;;;29.40;64.20;;;;;;10413358;28;20237;-81
2021/06/19 18:44:38;;;;;;;9.27;8.20;;;29.40;65.10;;;;;;10428240;28;20214;-81
2021/06/19 18:49:42;;;;;;;8.53;7.73;;;29.30;65.50;;;;;;10420030;28;20220;-81
2021/06/19 18:54:46;;;;;;;8.77;7.90;;;29.20;66.30;;;;;;10424502;28;20202;-81
2021/06/19 18:59:48;;;;;;;7.60;6.90;;;29.10;66.50;;;;;;10402564;28;20230;-81
2021/06/19 19:04:55;;;;;;;8.30;7.50;;;29.00;66.70;;;;;;10421895;28;20579;-81
2021/06/19 19:09:58;;;;;;;10.57;8.43;;;29.00;66.90;;;;;;10420278;28;20217;-81
2021/06/19 19:15:01;;;;;;;8.47;7.67;;;28.80;67.30;;;;;;10421269;28;20229;-81
2021/06/19 19:20:05;;;;;;;10.60;9.50;;;28.70;67.70;;;;;;10409089;28;20222;-81
2021/06/19 19:25:09;;;;;;;8.40;7.70;;;28.60;68.20;;;;;;10410314;28;20194;-81
2021/06/19 19:30:13;;;;;;;8.70;8.00;;;28.50;68.60;;;;;;10422684;28;20377;-81
2021/06/19 19:35:16;;;;;;;9.13;8.30;;;28.40;68.90;;;;;;10421188;28;20271;-81
2021/06/19 19:40:20;;;;;;;9.63;8.57;;;28.30;68.70;;;;;;10420784;28;20256;-81
2021/06/19 19:45:23;;;;;;;8.27;7.47;;;28.20;68.70;;;;;;10403699;28;20226;-81
2021/06/19 19:50:26;;;;;;;9.80;8.83;;;28.10;68.60;;;;;;10418599;28;20202;-81
2021/06/19 19:55:29;;;;;;;9.70;8.80;;;28.10;69.00;;;;;;10405560;28;20226;-81
2021/06/19 20:00:31;;;;;;;10.27;8.00;;;27.90;69.60;;;;;;10413487;28;20713;-81
2021/06/19 20:05:34;;;;;;;9.47;8.57;;;27.80;69.80;;;;;;10411992;28;20300;-82
2021/06/19 20:10:38;;;;;;;11.60;8.23;;;27.80;70.40;;;;;;10417789;28;20233;-82
2021/06/19 20:15:41;;;;;;;9.43;8.70;;;27.70;70.50;;;;;;10419511;28;20222;-82
2021/06/19 20:20:45;;;;;;;9.17;7.90;;;27.70;70.70;;;;;;10411366;28;20694;-82
2021/06/19 20:25:49;;;;;;;10.67;8.13;;;27.60;70.80;;;;;;10417997;28;20287;-82
2021/06/19 20:30:52;;;;;;;8.70;7.70;;;27.50;71.00;;;;;;10406097;28;20206;-82
2021/06/19 20:35:55;;;;;;;8.27;7.57;;;27.50;71.60;;;;;;10419456;28;20222;-82
2021/06/19 20:40:59;;;;;;;9.80;8.80;;;27.50;71.50;;;;;;10420365;28;20659;-81
2021/06/19 20:46:01;;;;;;;8.80;8.00;;;27.40;71.70;;;;;;10414933;28;20301;-83
2021/06/19 20:51:03;;;;;;;9.13;8.30;;;27.30;71.80;;;;;;10414574;28;20229;-82
2021/06/19 20:56:07;;;;;;;9.30;7.90;;;27.20;72.30;;;;;;10408772;28;20230;-82
2021/06/19 21:01:09;;;;;;;10.83;8.37;;;27.30;72.30;;;;;;10410894;28;20202;-82
2021/06/19 21:06:12;;;;;;;8.83;8.00;;;27.20;73.40;;;;;;10409683;28;20229;-81
2021/06/19 21:11:16;;;;;;;9.20;8.40;;;27.30;72.60;;;;;;10392872;28;20237;-81
2021/06/19 21:16:18;;;;;;;9.20;8.40;;;27.30;72.20;;;;;;10413857;28;20224;-81
2021/06/19 21:21:20;;;;;;;8.60;7.90;;;27.30;72.50;;;;;;10388471;28;20227;-81
2021/06/19 21:26:24;;;;;;;10.27;9.13;;;27.20;72.50;;;;;;10401185;28;20234;-82
2021/06/19 21:31:26;;;;;;;13.23;9.13;;;27.20;72.80;;;;;;10416012;28;20198;-82
2021/06/19 21:36:28;;;;;;;9.50;8.60;;;27.10;72.90;;;;;;10416546;28;20246;-81
2021/06/19 21:41:32;;;;;;;9.20;7.83;;;27.10;73.10;;;;;;10422120;28;20233;-80
2021/06/19 21:46:35;;;;;;;10.57;8.70;;;27.10;74.20;;;;;;10384962;28;20249;-82
2021/06/19 21:51:37;;;;;;;14.57;8.90;;;27.00;74.00;;;;;;10392647;28;20224;-81
2021/06/19 21:56:40;;;;;;;9.73;8.90;;;26.90;75.00;;;;;;10393549;28;20672;-81
2021/06/19 22:01:42;;;;;;;10.53;8.90;;;26.90;74.40;;;;;;10381873;28;20208;-81
2021/06/19 22:06:44;;;;;;;10.80;8.80;;;27.00;75.10;;;;;;10394986;28;20230;-81
2021/06/19 22:11:48;;;;;;;9.57;8.77;;;27.00;74.50;;;;;;10400171;28;20271;-81
2021/06/19 22:16:50;;;;;;;8.73;7.93;;;27.00;74.40;;;;;;10439774;28;20209;-81
2021/06/19 22:21:52;;;;;;;8.83;7.93;;;27.00;75.00;;;;;;10440071;28;20214;-80
2021/06/19 22:26:56;;;;;;;9.30;7.87;;;27.00;74.80;;;;;;10439422;28;20218;-81
2021/06/19 22:31:58;;;;;;;9.60;8.60;;;27.00;75.00;;;;;;10433415;28;20807;-82
2021/06/19 22:37:00;;;;;;;13.03;8.80;;;26.90;75.40;;;;;;10422532;28;20233;-82
2021/06/19 22:42:06;;;;;;;10.30;9.30;;;26.90;75.50;;;;;;10424221;28;20213;-81
2021/06/19 22:47:08;;;;;;;11.47;8.60;;;26.90;75.60;;;;;;10439296;28;20214;-81
2021/06/19 22:52:10;;;;;;;8.60;7.90;;;26.90;75.60;;;;;;10436327;28;20225;-81
2021/06/19 22:57:15;;;;;;;8.83;7.97;;;26.90;75.40;;;;;;10445874;28;20226;-82
2021/06/19 23:02:17;;;;;;;10.13;9.13;;;26.80;75.30;;;;;;10434476;28;20244;-82
2021/06/19 23:07:19;;;;;;;11.37;8.10;;;26.80;75.70;;;;;;10455946;22;20331;-80
2021/06/19 23:12:22;;;;;;;9.43;8.53;;;26.80;75.60;;;;;;10462328;28;20368;-80
2021/06/19 23:17:25;;;;;;;10.03;8.50;;;26.70;76.10;;;;;;10433372;28;20213;-80
2021/06/19 23:22:27;;;;;;;9.37;8.37;;;26.70;76.60;;;;;;10444342;28;20197;-79
2021/06/19 23:27:30;;;;;;;9.40;8.60;;;26.70;75.90;;;;;;10437467;28;20220;-78
2021/06/19 23:32:33;;;;;;;11.63;8.63;;;26.70;75.90;;;;;;10413316;28;20205;-78
2021/06/19 23:37:36;;;;;;;9.70;8.27;;;26.70;74.60;;;;;;10423436;28;20221;-78
2021/06/19 23:42:40;;;;;;;9.87;8.70;;;26.70;73.50;;;;;;10419688;28;20226;-78
2021/06/19 23:47:42;;;;;;;8.60;7.60;;;26.70;73.60;;;;;;10431924;28;20272;-78
2021/06/19 23:52:44;;;;;;;8.73;8.03;;;26.70;72.90;;;;;;10429646;28;20204;-78
2021/06/19 23:57:49;;;;;;;9.40;8.70;;;26.70;72.20;;;;;;10408916;28;20232;-78
